Time;durP1;ratioP1;P1;durP2;ratioP2;P2;SDS_P1;SDS_P2;PMS_P1;PMS_P2;Temp;Humidity;BMP_temperature;BMP_pressure;BME280_temperature;BME280_humidity;BME280_pressure;Samples;Min_cycle;Max_cycle;Signal;HPM_P1;HPM_P2
2023/07/04 00:01:46;;;;;;;14.93;4.07;;;15.70;99.90;;;;;;5073041;28;20184;-66
2023/07/04 00:04:13;;;;;;;10.07;4.33;;;15.70;99.90;;;;;;5073123;28;20173;-66
2023/07/04 00:06:39;;;;;;;15.17;4.33;;;15.70;99.90;;;;;;5072748;28;20195;-66
2023/07/04 00:09:06;;;;;;;19.53;4.13;;;15.70;99.90;;;;;;5072460;28;20161;-67
2023/07/04 00:11:33;;;;;;;17.27;4.70;;;15.60;99.90;;;;;;5072610;28;20297;-67
2023/07/04 00:13:58;;;;;;;15.10;4.43;;;15.60;99.90;;;;;;5072739;28;20161;-66
2023/07/04 00:16:24;;;;;;;12.93;4.30;;;15.60;99.90;;;;;;5072814;28;20191;-65
2023/07/04 00:18:50;;;;;;;20.43;5.07;;;15.60;99.90;;;;;;5072758;28;20195;-65
2023/07/04 00:21:17;;;;;;;14.10;4.57;;;15.60;99.90;;;;;;5072487;28;20237;-67
2023/07/04 00:23:45;;;;;;;15.70;4.30;;;15.60;99.90;;;;;;5072217;28;20540;-65
2023/07/04 00:26:17;;;;;;;14.27;4.27;;;15.50;99.90;;;;;;5072604;28;20194;-65
2023/07/04 00:28:42;;;;;;;15.50;4.60;;;15.50;99.90;;;;;;5072635;28;20198;-67
2023/07/04 00:31:10;;;;;;;21.57;4.67;;;15.50;99.90;;;;;;5072351;28;20663;-66
2023/07/04 00:33:36;;;;;;;14.37;4.40;;;15.40;99.90;;;;;;5072657;28;20187;-66
2023/07/04 00:36:04;;;;;;;16.50;4.87;;;15.40;99.90;;;;;;5072383;28;20640;-67
2023/07/04 00:38:34;;;;;;;15.20;4.57;;;15.40;99.90;;;;;;5071722;28;20581;-67
2023/07/04 00:41:04;;;;;;;18.43;4.87;;;15.40;99.90;;;;;;5072554;28;20203;-66
2023/07/04 00:44:34;;;;;;;19.33;5.10;;;15.40;99.90;;;;;;5073346;28;20188;-67
2023/07/04 00:46:39;;;;;;;17.17;5.00;;;15.40;99.90;;;;;;5067484;28;20200;-67
2023/07/04 00:49:18;;;;;;;15.17;4.23;;;15.40;99.90;;;;;;5075856;28;20242;-66
2023/07/04 00:52:00;;;;;;;15.33;4.53;;;15.40;99.90;;;;;;5075716;28;20243;-67
2023/07/04 00:54:32;;;;;;;17.67;4.93;;;15.40;99.90;;;;;;5075884;28;20195;-67
2023/07/04 00:57:06;;;;;;;16.10;4.73;;;15.40;99.90;;;;;;5075791;28;20173;-66
2023/07/04 00:59:34;;;;;;;18.53;4.43;;;15.40;99.90;;;;;;5075849;28;20176;-67
2023/07/04 01:02:00;;;;;;;19.27;4.73;;;15.30;99.90;;;;;;5075617;28;20184;-67
2023/07/04 01:04:26;;;;;;;19.17;5.10;;;15.30;99.90;;;;;;5075497;28;20224;-66
2023/07/04 01:07:00;;;;;;;19.03;4.87;;;15.30;99.90;;;;;;5075535;28;20185;-67
2023/07/04 01:09:28;;;;;;;15.23;4.50;;;15.30;99.90;;;;;;5075438;28;20176;-67
2023/07/04 01:11:54;;;;;;;15.53;4.80;;;15.40;99.90;;;;;;5075440;28;20294;-67
2023/07/04 01:14:25;;;;;;;21.10;4.90;;;15.30;99.90;;;;;;5075501;28;20196;-66
2023/07/04 01:16:52;;;;;;;13.90;4.60;;;15.30;99.90;;;;;;5075484;28;20260;-67
2023/07/04 01:19:32;;;;;;;17.37;4.87;;;15.30;99.90;;;;;;5075258;28;20211;-67
2023/07/04 01:22:07;;;;;;;16.30;4.60;;;15.30;99.90;;;;;;5075100;28;20173;-67
2023/07/04 01:24:55;;;;;;;18.93;5.40;;;15.30;99.90;;;;;;5075478;28;20164;-67
2023/07/04 01:27:22;;;;;;;17.30;5.10;;;15.30;99.90;;;;;;5075387;28;20161;-67
2023/07/04 01:29:48;;;;;;;20.20;4.57;;;15.20;99.90;;;;;;5075093;28;20176;-66
2023/07/04 01:32:14;;;;;;;18.40;4.53;;;15.20;99.90;;;;;;5074847;28;20608;-67
2023/07/04 01:34:41;;;;;;;19.30;5.03;;;15.20;99.90;;;;;;5075478;28;20172;-66
2023/07/04 01:37:07;;;;;;;18.27;4.77;;;15.10;99.90;;;;;;5074680;28;20156;-67
2023/07/04 01:39:32;;;;;;;15.90;4.47;;;15.20;99.90;;;;;;5074764;28;20690;-67
2023/07/04 01:42:00;;;;;;;15.80;4.87;;;15.10;99.90;;;;;;5074929;28;20688;-67
2023/07/04 01:44:26;;;;;;;17.73;5.27;;;15.10;99.90;;;;;;5074764;28;20194;-66
2023/07/04 01:46:51;;;;;;;19.07;4.87;;;15.10;99.90;;;;;;5074757;28;20198;-66
2023/07/04 01:49:19;;;;;;;21.93;5.00;;;15.10;99.90;;;;;;5074782;28;20638;-66
2023/07/04 01:51:45;;;;;;;14.10;4.90;;;15.10;99.90;;;;;;5074450;28;20298;-66
2023/07/04 01:54:18;;;;;;;15.90;5.07;;;15.00;99.90;;;;;;5074241;28;20558;-66
2023/07/04 01:56:47;;;;;;;26.40;5.47;;;15.00;99.90;;;;;;5074555;28;20176;-67
2023/07/04 01:59:13;;;;;;;15.23;5.00;;;15.00;99.90;;;;;;5074354;28;20195;-67
2023/07/04 02:01:38;;;;;;;19.37;5.40;;;15.00;99.90;;;;;;5074456;28;20624;-67
2023/07/04 02:04:04;;;;;;;17.90;4.83;;;15.00;99.90;;;;;;5074526;28;20511;-67
2023/07/04 02:06:30;;;;;;;20.80;4.90;;;15.00;99.90;;;;;;5074356;28;20172;-66
2023/07/04 02:08:55;;;;;;;15.23;4.87;;;15.00;99.90;;;;;;5074232;28;20253;-67
2023/07/04 02:11:21;;;;;;;19.60;5.00;;;15.00;99.90;;;;;;5074177;28;20265;-67
2023/07/04 02:13:47;;;;;;;19.97;5.43;;;15.00;99.90;;;;;;5074795;28;20176;-67
2023/07/04 02:16:12;;;;;;;16.83;4.80;;;14.90;99.90;;;;;;5074360;28;20172;-67
2023/07/04 02:18:38;;;;;;;22.83;5.43;;;14.90;99.90;;;;;;5074095;28;20689;-67
2023/07/04 02:21:04;;;;;;;19.43;5.07;;;15.00;99.90;;;;;;5073622;28;20177;-66
2023/07/04 02:23:29;;;;;;;14.67;4.57;;;15.00;99.90;;;;;;5074155;28;20169;-66
2023/07/04 02:25:55;;;;;;;24.27;5.47;;;14.90;99.90;;;;;;5074107;28;20651;-66
2023/07/04 02:28:21;;;;;;;18.70;4.90;;;14.90;99.90;;;;;;5056000;28;20173;-66
2023/07/04 02:30:58;;;;;;;19.63;5.10;;;14.90;99.90;;;;;;5073728;28;20200;-67
2023/07/04 02:33:24;;;;;;;20.47;5.37;;;14.80;99.90;;;;;;5073845;28;20168;-66
2023/07/04 02:35:50;;;;;;;21.30;5.10;;;14.80;99.90;;;;;;5074093;28;20255;-66
2023/07/04 02:38:16;;;;;;;22.17;5.27;;;14.80;99.90;;;;;;5073683;28;20169;-67
2023/07/04 02:40:46;;;;;;;20.53;4.90;;;14.80;99.90;;;;;;5073576;28;20667;-67
2023/07/04 02:43:13;;;;;;;25.50;6.17;;;14.80;99.90;;;;;;5073751;28;20620;-66
2023/07/04 02:45:39;;;;;;;19.80;5.17;;;14.80;99.90;;;;;;5073605;28;20204;-66
2023/07/04 02:48:05;;;;;;;20.83;5.40;;;14.80;99.90;;;;;;5073229;28;20191;-66
2023/07/04 02:50:31;;;;;;;16.57;4.90;;;14.70;99.90;;;;;;5073466;28;20219;-67
2023/07/04 02:52:58;;;;;;;17.13;5.50;;;14.70;99.90;;;;;;5073387;28;20255;-66
2023/07/04 02:55:25;;;;;;;14.67;4.80;;;14.70;99.90;;;;;;5073263;28;20169;-65
2023/07/04 02:57:50;;;;;;;19.93;5.10;;;14.70;99.90;;;;;;5073514;28;20168;-66
2023/07/04 03:00:16;;;;;;;19.80;5.43;;;14.60;99.90;;;;;;5073490;28;20169;-66
2023/07/04 03:02:42;;;;;;;17.13;5.03;;;14.60;99.90;;;;;;5073256;28;20641;-67
2023/07/04 03:05:08;;;;;;;21.83;5.27;;;14.60;99.90;;;;;;5073487;28;20517;-67
2023/07/04 03:07:33;;;;;;;16.53;5.00;;;14.60;99.90;;;;;;5073121;28;20172;-67
2023/07/04 03:09:59;;;;;;;21.93;5.40;;;14.60;99.90;;;;;;5072734;28;20530;-66
2023/07/04 03:12:24;;;;;;;16.60;5.10;;;14.60;99.90;;;;;;5073386;28;20189;-66
2023/07/04 03:14:50;;;;;;;22.20;5.20;;;14.60;99.90;;;;;;5073087;28;20180;-66
2023/07/04 03:17:16;;;;;;;23.13;5.37;;;14.60;99.90;;;;;;5054681;28;20164;-66
2023/07/04 03:19:42;;;;;;;21.57;5.53;;;14.50;99.90;;;;;;5072813;28;20232;-66
2023/07/04 03:22:07;;;;;;;17.40;5.13;;;14.60;99.90;;;;;;5072916;28;20255;-66
2023/07/04 03:24:33;;;;;;;25.73;5.77;;;14.60;99.90;;;;;;5073207;28;20168;-66
2023/07/04 03:26:58;;;;;;;18.10;5.30;;;14.50;99.90;;;;;;5073112;28;20306;-66
2023/07/04 03:29:24;;;;;;;20.00;5.27;;;14.50;99.90;;;;;;5073015;28;20172;-66
2023/07/04 03:31:50;;;;;;;23.73;5.57;;;14.40;99.90;;;;;;5072536;28;20207;-67
2023/07/04 03:34:15;;;;;;;17.77;5.37;;;14.50;99.90;;;;;;5072808;28;20522;-67
2023/07/04 03:36:41;;;;;;;23.87;5.80;;;14.40;99.90;;;;;;5072981;28;20222;-67
2023/07/04 03:39:06;;;;;;;18.43;5.53;;;14.40;99.90;;;;;;5072319;28;20371;-66
2023/07/04 03:41:32;;;;;;;15.73;5.00;;;14.40;99.90;;;;;;5072864;28;20519;-66
2023/07/04 03:44:00;;;;;;;20.43;4.97;;;14.40;99.90;;;;;;5072834;28;20259;-66
2023/07/04 03:46:26;;;;;;;18.10;5.50;;;14.50;99.90;;;;;;5072273;28;20181;-66
2023/07/04 03:48:51;;;;;;;18.87;5.23;;;14.50;99.90;;;;;;5072636;28;20172;-66
2023/07/04 03:51:17;;;;;;;18.13;5.50;;;14.40;99.90;;;;;;5072446;28;20208;-66
2023/07/04 03:53:43;;;;;;;19.40;5.70;;;14.40;99.90;;;;;;5072383;28;20200;-66
2023/07/04 03:56:08;;;;;;;21.37;5.47;;;14.40;99.90;;;;;;5072545;28;20176;-66
2023/07/04 03:58:34;;;;;;;21.77;5.47;;;14.50;99.90;;;;;;5072400;28;20574;-66
2023/07/04 04:01:01;;;;;;;17.83;4.83;;;14.50;99.90;;;;;;5072229;28;20180;-66
2023/07/04 04:03:26;;;;;;;22.20;5.60;;;14.50;99.90;;;;;;5072218;28;20172;-67
2023/07/04 04:05:53;;;;;;;24.90;5.77;;;14.60;99.90;;;;;;5072348;28;20588;-66
2023/07/04 04:08:18;;;;;;;17.33;5.13;;;14.60;99.90;;;;;;5072324;28;20172;-66
2023/07/04 04:10:44;;;;;;;17.90;5.60;;;14.80;99.90;;;;;;5072127;28;20307;-65
2023/07/04 04:13:10;;;;;;;18.93;5.47;;;14.70;99.90;;;;;;5072454;28;20194;-67
2023/07/04 04:15:35;;;;;;;15.27;5.07;;;14.70;99.90;;;;;;5072173;28;20195;-67
2023/07/04 04:18:01;;;;;;;22.07;5.40;;;14.90;99.90;;;;;;5072449;28;20183;-66
2023/07/04 04:20:27;;;;;;;20.17;5.27;;;15.00;99.90;;;;;;5076130;28;20176;-66
2023/07/04 04:22:53;;;;;;;23.03;5.23;;;15.10;99.90;;;;;;5075498;28;20177;-67
2023/07/04 04:25:19;;;;;;;17.83;4.80;;;15.30;99.90;;;;;;5076192;28;20206;-66
2023/07/04 04:27:48;;;;;;;17.43;5.20;;;15.40;99.90;;;;;;5075634;28;20181;-67
2023/07/04 04:30:14;;;;;;;18.00;5.07;;;15.50;99.90;;;;;;5075461;28;20176;-66
2023/07/04 04:32:41;;;;;;;18.53;5.17;;;15.60;99.90;;;;;;5075741;28;20169;-67
2023/07/04 04:35:08;;;;;;;17.03;4.90;;;15.80;99.90;;;;;;5075699;28;20237;-67
2023/07/04 04:37:34;;;;;;;18.87;5.33;;;16.00;99.90;;;;;;5075534;28;20246;-68
2023/07/04 04:40:00;;;;;;;16.53;5.10;;;16.40;99.90;;;;;;5075689;28;20586;-67
2023/07/04 04:42:26;;;;;;;16.13;5.00;;;16.80;99.90;;;;;;5074935;28;20172;-67
2023/07/04 04:44:53;;;;;;;15.53;4.83;;;17.00;96.10;;;;;;5075394;28;20180;-67
2023/07/04 04:47:22;;;;;;;21.63;5.30;;;17.10;90.20;;;;;;5075400;28;20248;-66
2023/07/04 04:49:47;;;;;;;17.50;4.43;;;17.50;85.10;;;;;;5075544;28;20180;-67
2023/07/04 04:52:13;;;;;;;18.53;4.77;;;17.80;57.10;;;;;;5074451;28;20663;-67
2023/07/04 04:54:39;;;;;;;15.03;5.07;;;18.10;44.70;;;;;;5075674;28;20180;-68
2023/07/04 04:57:06;;;;;;;20.37;5.20;;;18.60;34.50;;;;;;5075543;28;20182;-68
2023/07/04 04:59:31;;;;;;;16.58;4.78;;;19.20;24.60;;;;;;5074867;28;20233;-68
2023/07/04 05:01:57;;;;;;;15.23;4.55;;;19.60;5.40;;;;;;5075018;28;20632;-68
2023/07/04 05:04:23;;;;;;;15.98;4.43;;;20.00;1.00;;;;;;5074334;28;20599;-67
2023/07/04 05:06:49;;;;;;;17.13;4.88;;;20.40;1.00;;;;;;5075178;28;20503;-68
2023/07/04 05:09:15;;;;;;;13.68;4.97;;;20.80;1.00;;;;;;5074793;28;20177;-68
2023/07/04 05:11:40;;;;;;;16.65;4.47;;;20.60;1.00;;;;;;5074508;28;20568;-67
2023/07/04 05:14:08;;;;;;;13.88;4.50;;;21.10;1.00;;;;;;5074595;28;20644;-68
2023/07/04 05:16:34;;;;;;;13.27;4.30;;;21.80;1.00;;;;;;5074971;28;20173;-67
2023/07/04 05:18:59;;;;;;;13.32;4.82;;;22.10;1.00;;;;;;5074589;28;20196;-68
2023/07/04 05:21:25;;;;;;;15.48;4.55;;;22.60;1.00;;;;;;5074195;28;20172;-68
2023/07/04 05:23:52;;;;;;;12.38;4.82;;;22.60;1.00;;;;;;5075210;28;20172;-69
2023/07/04 05:26:23;;;;;;;15.07;4.72;;;22.80;1.00;;;;;;5074576;28;20169;-69
2023/07/04 05:28:51;;;;;;;13.98;4.68;;;22.90;1.00;;;;;;5073543;28;20207;-69
2023/07/04 05:31:20;;;;;;;15.77;4.40;;;22.70;1.00;;;;;;5074504;28;20303;-69
2023/07/04 05:33:46;;;;;;;14.60;4.72;;;23.60;1.00;;;;;;5074337;28;20618;-69
2023/07/04 05:36:20;;;;;;;16.80;5.18;;;23.90;1.00;;;;;;5074833;28;20185;-69
2023/07/04 05:38:50;;;;;;;11.65;4.75;;;23.90;1.00;;;;;;5073915;28;20225;-69
2023/07/04 05:41:18;;;;;;;13.48;5.35;;;24.40;1.00;;;;;;5073967;28;20632;-69
2023/07/04 05:43:44;;;;;;;11.10;4.78;;;24.30;1.00;;;;;;5074087;28;20173;-70
2023/07/04 05:46:11;;;;;;;14.65;4.80;;;25.50;99.90;;;;;;5073664;28;20174;-70
2023/07/04 05:48:38;;;;;;;11.48;4.32;;;25.30;1.00;;;;;;5073873;28;20184;-70
2023/07/04 05:51:05;;;;;;;14.48;4.80;;;24.70;99.90;;;;;;5072929;28;20220;-70
2023/07/04 05:53:33;;;;;;;16.55;4.50;;;25.20;99.90;;;;;;5074208;28;20180;-70
2023/07/04 05:56:14;;;;;;;17.90;4.90;;;24.50;1.00;;;;;;5073727;28;20173;-71
2023/07/04 05:58:43;;;;;;;14.20;4.75;;;25.50;99.90;;;;;;5072876;28;20164;-71
2023/07/04 06:01:33;;;;;;;16.08;4.57;;;26.10;43.30;;;;;;5073148;28;20593;-72
2023/07/04 06:04:00;;;;;;;15.02;4.65;;;26.20;45.20;;;;;;5063737;28;20192;-71
2023/07/04 06:06:33;;;;;;;12.27;4.63;;;25.70;1.00;;;;;;5073831;28;20244;-70
2023/07/04 06:09:01;;;;;;;16.02;5.00;;;25.10;78.70;;;;;;5074051;28;20246;-70
2023/07/04 06:11:30;;;;;;;15.13;4.35;;;25.80;1.00;;;;;;5072967;28;20208;-71
2023/07/04 06:13:57;;;;;;;10.02;3.97;;;26.00;99.90;;;;;;5073179;28;20199;-70
2023/07/04 06:16:23;;;;;;;14.30;4.75;;;26.50;1.00;;;;;;5073673;28;20677;-71
2023/07/04 06:18:49;;;;;;;15.07;4.72;;;26.30;1.00;;;;;;5072309;28;20668;-70
2023/07/04 06:21:17;;;;;;;13.80;4.50;;;27.00;1.00;;;;;;5072966;28;20165;-70
2023/07/04 06:23:43;;;;;;;12.23;4.78;;;27.60;6.90;;;;;;5073170;28;20223;-71
2023/07/04 06:26:11;;;;;;;15.32;5.20;;;26.70;1.00;;;;;;5072732;28;20585;-70
2023/07/04 06:28:38;;;;;;;12.25;4.05;;;25.80;1.00;;;;;;5072950;28;20640;-69
2023/07/04 06:31:04;;;;;;;18.30;4.93;;;24.10;1.00;;;;;;5073404;28;20208;-70
2023/07/04 06:33:30;;;;;;;15.25;4.57;;;24.20;1.00;;;;;;5072553;28;20169;-71
2023/07/04 06:35:56;;;;;;;10.90;4.75;;;24.20;1.00;;;;;;5073446;28;20177;-70
2023/07/04 06:38:22;;;;;;;14.15;4.97;;;24.40;1.00;;;;;;5072173;28;20195;-72
2023/07/04 06:40:56;;;;;;;19.95;5.15;;;25.00;99.90;;;;;;5071817;28;20624;-70
2023/07/04 06:43:23;;;;;;;15.82;4.50;;;25.70;86.00;;;;;;5073072;28;20184;-70
2023/07/04 06:45:49;;;;;;;11.32;4.63;;;25.50;99.90;;;;;;5072490;28;20179;-70
2023/07/04 06:48:14;;;;;;;9.15;4.00;;;25.10;99.90;;;;;;5072815;28;20178;-70
2023/07/04 06:50:40;;;;;;;13.75;4.60;;;24.70;99.90;;;;;;5072647;28;20721;-71
2023/07/04 06:53:06;;;;;;;16.85;4.85;;;24.40;1.00;;;;;;5072667;28;20192;-70
2023/07/04 06:55:31;;;;;;;15.35;4.72;;;24.70;99.90;;;;;;5071875;28;20176;-71
2023/07/04 06:57:57;;;;;;;13.90;4.90;;;25.10;99.90;;;;;;5072395;28;20722;-67
2023/07/04 07:00:23;;;;;;;12.35;4.65;;;24.70;99.90;;;;;;5072311;28;20550;-68
2023/07/04 07:02:50;;;;;;;15.00;5.28;;;24.10;1.00;;;;;;5072134;28;20256;-68
2023/07/04 07:05:16;;;;;;;18.35;4.88;;;23.30;1.00;;;;;;5072670;28;20177;-71
2023/07/04 07:07:42;;;;;;;16.77;5.28;;;23.90;1.00;;;;;;5072010;28;20242;-70
2023/07/04 07:10:08;;;;;;;12.18;4.68;;;24.30;1.00;;;;;;5072390;28;20506;-70
2023/07/04 07:12:34;;;;;;;12.95;4.68;;;25.00;99.90;;;;;;5071997;28;20184;-72
2023/07/04 07:15:00;;;;;;;11.77;4.38;;;25.80;1.00;;;;;;5065762;28;20535;-71
2023/07/04 07:17:25;;;;;;;11.57;4.88;;;26.20;1.00;;;;;;5062910;28;20636;-71
2023/07/04 07:19:51;;;;;;;13.80;4.40;;;26.30;99.90;;;;;;5062703;28;20193;-71
2023/07/04 07:22:16;;;;;;;13.82;4.50;;;26.50;99.90;;;;;;5073353;28;20769;-71
2023/07/04 07:24:42;;;;;;;14.95;5.18;;;26.20;1.00;;;;;;5086348;28;20172;-72
2023/07/04 07:27:08;;;;;;;14.90;4.40;;;26.90;1.00;;;;;;5090316;28;20650;-72
2023/07/04 07:29:34;;;;;;;8.65;4.22;;;27.00;99.90;;;;;;5060100;28;20217;-71
2023/07/04 07:32:05;;;;;;;13.43;4.60;;;27.60;99.90;;;;;;5071245;28;20230;-74
2023/07/04 07:34:30;;;;;;;10.10;4.38;;;28.10;1.00;;;;;;5063518;28;20181;-72
2023/07/04 07:36:57;;;;;;;12.32;3.95;;;27.40;99.90;;;;;;5064606;28;20822;-72
2023/07/04 07:39:23;;;;;;;9.60;4.28;;;26.50;99.90;;;;;;5069046;28;20711;-70
2023/07/04 07:41:49;;;;;;;11.55;4.22;;;24.50;1.00;;;;;;5067947;28;20231;-71
2023/07/04 07:44:16;;;;;;;15.90;4.53;;;24.10;99.90;;;;;;5062418;28;20263;-71
2023/07/04 07:46:43;;;;;;;12.55;4.00;;;24.10;1.00;;;;;;5057617;28;20168;-69
2023/07/04 07:49:09;;;;;;;12.27;4.03;;;23.70;1.00;;;;;;5064686;28;20181;-70
2023/07/04 07:51:37;;;;;;;7.55;3.70;;;24.30;1.00;;;;;;5068151;28;20224;-69
2023/07/04 07:54:06;;;;;;;13.27;3.97;;;24.30;1.00;;;;;;5069978;28;20207;-72
2023/07/04 07:56:41;;;;;;;13.52;4.55;;;24.30;99.90;;;;;;5070884;28;20226;-70
2023/07/04 07:59:07;;;;;;;12.82;4.45;;;24.20;77.30;;;;;;5070793;28;20172;-70
2023/07/04 08:01:33;;;;;;;11.60;4.30;;;24.60;1.00;;;;;;5073438;28;20191;-71
2023/07/04 08:04:00;;;;;;;14.00;4.20;;;25.40;1.00;;;;;;5072362;28;20203;-70
2023/07/04 08:06:43;;;;;;;6.90;4.05;;;26.50;26.90;;;;;;5071016;28;20238;-70
2023/07/04 08:09:12;;;;;;;10.50;3.90;;;26.70;99.90;;;;;;5053531;28;20674;-72
2023/07/04 08:11:38;;;;;;;10.85;3.80;;;26.90;99.90;;;;;;5071416;28;20706;-71
2023/07/04 08:14:04;;;;;;;8.73;3.55;;;27.00;1.00;;;;;;5074149;28;20172;-70
2023/07/04 08:16:39;;;;;;;12.70;3.83;;;26.70;1.00;;;;;;5069079;28;20276;-71
2023/07/04 08:19:05;;;;;;;10.80;3.78;;;26.60;1.00;;;;;;5072434;28;20192;-72
2023/07/04 08:21:31;;;;;;;12.40;3.92;;;26.80;1.00;;;;;;5066828;28;20515;-72
2023/07/04 08:23:58;;;;;;;7.80;4.07;;;26.70;1.00;;;;;;5068314;28;20169;-70
2023/07/04 08:26:25;;;;;;;11.82;4.63;;;27.00;1.00;;;;;;5063608;28;20184;-70
2023/07/04 08:28:55;;;;;;;11.05;4.20;;;26.40;99.90;;;;;;5069372;28;20176;-70
2023/07/04 08:31:21;;;;;;;11.07;3.55;;;25.00;1.00;;;;;;5072801;28;20216;-72
2023/07/04 08:33:47;;;;;;;12.70;3.72;;;24.60;99.90;;;;;;5071206;28;20212;-70
2023/07/04 08:36:14;;;;;;;11.32;4.22;;;24.90;1.00;;;;;;5072790;28;20598;-71
2023/07/04 08:38:41;;;;;;;8.60;3.63;;;26.00;99.90;;;;;;5070877;28;20290;-73
2023/07/04 08:41:32;;;;;;;8.77;3.63;;;26.70;99.90;;;;;;5070567;28;20188;-72
2023/07/04 08:44:09;;;;;;;6.68;3.45;;;26.60;1.00;;;;;;5041097;28;20230;-72
2023/07/04 08:46:42;;;;;;;9.98;3.95;;;25.90;99.90;;;;;;5073859;28;20232;-71
2023/07/04 08:49:27;;;;;;;17.52;4.13;;;25.70;1.00;;;;;;5065084;28;20620;-75
2023/07/04 08:52:02;;;;;;;7.82;4.05;;;26.00;99.90;;;;;;5038068;28;20212;-72
2023/07/04 08:54:28;;;;;;;8.65;3.50;;;26.80;1.00;;;;;;5073349;28;20172;-72
2023/07/04 08:57:03;;;;;;;6.13;3.35;;;27.00;1.00;;;;;;5070272;28;20189;-72
2023/07/04 08:59:41;;;;;;;7.60;3.53;;;27.00;1.00;;;;;;5066099;28;20172;-70
2023/07/04 09:02:25;;;;;;;10.93;4.10;;;27.60;52.90;;;;;;5069695;28;20176;-73
2023/07/04 09:05:24;;;;;;;8.65;4.10;;;28.30;1.00;;;;;;5070789;28;20674;-71
2023/07/04 09:08:31;;;;;;;10.60;4.00;;;27.00;99.90;;;;;;5066526;28;20177;-71
2023/07/04 09:11:02;;;;;;;11.95;3.90;;;26.30;1.00;;;;;;5073567;28;20200;-71
2023/07/04 09:13:34;;;;;;;14.30;4.47;;;25.30;99.90;;;;;;5071084;28;20205;-70
2023/07/04 09:16:05;;;;;;;13.93;3.78;;;25.70;1.00;;;;;;5068954;28;20181;-71
2023/07/04 09:18:45;;;;;;;7.93;4.15;;;25.10;34.40;;;;;;5067950;28;20541;-71
2023/07/04 09:21:14;;;;;;;13.88;4.22;;;25.80;1.00;;;;;;5069049;28;20279;-71
2023/07/04 09:23:40;;;;;;;11.45;4.20;;;26.80;1.00;;;;;;5069721;28;20189;-73
2023/07/04 09:26:10;;;;;;;11.23;4.05;;;27.50;1.00;;;;;;5067110;28;20759;-73
2023/07/04 09:28:42;;;;;;;10.52;3.75;;;27.80;37.00;;;;;;5070903;28;20246;-73
2023/07/04 09:31:16;;;;;;;10.30;4.43;;;27.10;1.00;;;;;;5070937;28;20208;-72
2023/07/04 09:33:44;;;;;;;9.05;4.10;;;26.60;49.30;;;;;;5049798;28;20524;-72
2023/07/04 09:36:10;;;;;;;11.25;4.82;;;25.80;15.20;;;;;;5066871;28;20191;-70
2023/07/04 09:38:56;;;;;;;11.77;5.18;;;24.90;99.90;;;;;;5070073;28;20220;-72
2023/07/04 09:41:28;;;;;;;11.80;4.40;;;25.00;99.90;;;;;;5068069;28;20314;-72
2023/07/04 09:43:55;;;;;;;8.88;4.40;;;25.40;1.00;;;;;;5072526;28;20176;-70
2023/07/04 09:46:21;;;;;;;12.40;4.38;;;24.90;1.00;;;;;;5068252;28;20643;-74
2023/07/04 09:48:46;;;;;;;11.10;4.65;;;24.90;70.90;;;;;;5068431;28;20394;-70
2023/07/04 09:51:18;;;;;;;11.00;4.75;;;25.50;1.00;;;;;;5064988;28;20800;-69
2023/07/04 09:53:43;;;;;;;16.77;4.93;;;25.90;1.00;;;;;;5067684;28;20220;-69
2023/07/04 09:56:11;;;;;;;8.52;4.50;;;24.70;1.00;;;;;;5049564;28;20645;-72
2023/07/04 09:58:37;;;;;;;11.00;4.63;;;24.70;1.00;;;;;;5071570;28;20258;-71
2023/07/04 10:01:18;;;;;;;11.75;4.78;;;25.70;1.00;;;;;;5061713;28;20184;-73
2023/07/04 10:03:45;;;;;;;11.85;4.72;;;25.80;1.00;;;;;;5065018;28;20169;-71
2023/07/04 10:06:11;;;;;;;10.77;4.63;;;25.10;1.00;;;;;;5071402;28;20184;-69
2023/07/04 10:08:54;;;;;;;9.82;4.93;;;24.40;99.90;;;;;;5070462;28;20533;-71
2023/07/04 10:11:32;;;;;;;9.35;4.68;;;24.50;1.00;;;;;;5069336;28;20624;-70
2023/07/04 10:14:08;;;;;;;10.02;4.88;;;24.90;1.00;;;;;;5068642;28;20589;-71
2023/07/04 10:16:35;;;;;;;8.57;4.30;;;25.70;1.00;;;;;;5070054;28;20164;-73
2023/07/04 10:19:08;;;;;;;8.88;4.13;;;26.00;99.90;;;;;;5063586;28;20197;-75
2023/07/04 10:21:40;;;;;;;8.63;4.38;;;25.50;99.90;;;;;;5066496;28;20208;-72
2023/07/04 10:24:07;;;;;;;11.23;5.05;;;24.00;1.00;;;;;;5072249;28;20171;-72
2023/07/04 10:26:33;;;;;;;10.05;5.00;;;23.90;1.00;;;;;;5054391;28;20172;-72
2023/07/04 10:28:59;;;;;;;9.02;4.53;;;24.60;99.90;;;;;;5072553;28;20177;-72
2023/07/04 10:31:25;;;;;;;10.20;4.88;;;25.60;1.00;;;;;;5065398;28;20583;-74
2023/07/04 10:33:57;;;;;;;7.15;4.30;;;26.20;1.00;;;;;;5055436;28;20633;-74
2023/07/04 10:36:28;;;;;;;10.13;4.80;;;26.10;1.00;;;;;;5059387;28;20176;-74
2023/07/04 10:39:07;;;;;;;11.38;4.78;;;26.30;1.00;;;;;;5042789;22;1802662;-72
2023/07/04 10:41:48;;;;;;;10.30;5.03;;;26.60;1.00;;;;;;5086155;28;20229;-72
2023/07/04 10:44:24;;;;;;;9.20;4.57;;;26.70;1.00;;;;;;5073512;28;20237;-72
2023/07/04 10:46:56;;;;;;;8.73;4.70;;;26.50;1.00;;;;;;5076711;28;20182;-72
2023/07/04 10:49:29;;;;;;;9.20;4.80;;;26.20;99.90;;;;;;5078905;28;20180;-71
2023/07/04 10:52:07;;;;;;;8.30;4.70;;;25.80;1.00;;;;;;5079408;28;20175;-72
2023/07/04 10:54:32;;;;;;;9.52;5.10;;;25.40;99.90;;;;;;5082328;28;20156;-72
2023/07/04 10:57:11;;;;;;;10.40;5.13;;;25.50;1.00;;;;;;5084574;28;20222;-72
2023/07/04 10:59:42;;;;;;;16.73;5.60;;;25.50;1.00;;;;;;5075877;28;20670;-72
2023/07/04 11:02:30;;;;;;;11.52;5.05;;;25.20;1.00;;;;;;5080712;28;20180;-70
2023/07/04 11:05:08;;;;;;;10.95;4.63;;;24.80;39.90;;;;;;5074960;28;20180;-70
2023/07/04 11:07:39;;;;;;;11.23;4.60;;;25.30;99.90;;;;;;5078526;28;20179;-71
2023/07/04 11:10:08;;;;;;;8.68;4.55;;;26.10;1.00;;;;;;5074520;28;20206;-70
2023/07/04 11:12:34;;;;;;;10.40;5.10;;;26.30;99.90;;;;;;5066306;28;20168;-72
2023/07/04 11:15:04;;;;;;;11.30;4.93;;;26.20;99.90;;;;;;5080996;28;20192;-71
2023/07/04 11:17:34;;;;;;;9.30;5.20;;;26.10;99.90;;;;;;5077310;28;20198;-73
2023/07/04 11:20:11;;;;;;;9.57;4.53;;;25.60;99.90;;;;;;5086883;28;20631;-71
2023/07/04 11:22:55;;;;;;;13.13;5.03;;;25.50;1.00;;;;;;5083928;28;20172;-72
2023/07/04 11:25:58;;;;;;;12.57;5.10;;;25.50;99.90;;;;;;5074231;28;20183;-72
2023/07/04 11:28:27;;;;;;;9.50;5.05;;;25.50;1.00;;;;;;5080657;28;20639;-71
2023/07/04 11:31:27;;;;;;;11.80;4.95;;;25.70;1.00;;;;;;5080130;28;20232;-72
2023/07/04 11:33:52;;;;;;;9.85;4.68;;;26.30;1.00;;;;;;5068721;28;20666;-70
2023/07/04 11:36:37;;;;;;;10.05;4.93;;;25.60;1.00;;;;;;5076769;28;20184;-71
2023/07/04 11:39:32;;;;;;;9.52;5.60;;;26.00;99.90;;;;;;5060078;28;20223;-73
2023/07/04 11:42:18;;;;;;;7.63;4.25;;;25.80;99.90;;;;;;5077810;28;20621;-75
2023/07/04 11:44:48;;;;;;;7.50;4.50;;;25.90;99.90;;;;;;5068253;28;20172;-73
2023/07/04 11:47:15;;;;;;;8.40;5.03;;;25.80;99.90;;;;;;5073995;28;20207;-72
2023/07/04 11:49:54;;;;;;;11.02;5.10;;;25.60;1.00;;;;;;5071714;28;20181;-69
2023/07/04 11:52:25;;;;;;;5.35;4.38;;;25.90;99.90;;;;;;5057279;28;20180;-70
2023/07/04 11:54:59;;;;;;;6.75;4.50;;;25.70;1.00;;;;;;5059450;28;20580;-71
2023/07/04 11:58:03;;;;;;;9.90;5.10;;;25.40;1.00;;;;;;5069634;28;20208;-68
2023/07/04 12:00:40;;;;;;;9.50;6.35;;;24.80;90.10;;;;;;5042909;28;20539;-72
2023/07/04 12:03:18;;;;;;;9.35;4.90;;;24.70;1.00;;;;;;5066102;28;20301;-70
2023/07/04 12:05:55;;;;;;;8.43;4.68;;;24.70;99.90;;;;;;5062158;28;20221;-69
2023/07/04 12:08:50;;;;;;;9.80;4.88;;;24.50;1.00;;;;;;5059798;28;20173;-71
2023/07/04 12:11:37;;;;;;;7.10;4.50;;;24.90;99.90;;;;;;5067086;28;20181;-70
2023/07/04 12:14:04;;;;;;;11.00;5.13;;;24.90;1.00;;;;;;5059892;28;20177;-72
2023/07/04 12:16:30;;;;;;;8.07;4.72;;;24.90;99.90;;;;;;5068843;28;20227;-71
2023/07/04 12:18:56;;;;;;;13.05;5.15;;;25.10;1.00;;;;;;5063162;28;20212;-73
2023/07/04 12:21:22;;;;;;;9.05;4.47;;;25.20;1.00;;;;;;5061341;28;20628;-69
2023/07/04 12:23:49;;;;;;;7.32;4.43;;;25.50;99.90;;;;;;5068888;28;20184;-69
2023/07/04 12:26:21;;;;;;;6.07;4.05;;;25.30;99.90;;;;;;5044058;28;20173;-70
2023/07/04 12:28:47;;;;;;;7.90;4.50;;;25.40;99.90;;;;;;5069854;28;20703;-69
2023/07/04 12:31:14;;;;;;;6.80;4.57;;;25.40;1.00;;;;;;5060805;28;20247;-72
2023/07/04 12:33:44;;;;;;;9.98;5.28;;;25.50;1.00;;;;;;5070942;28;20191;-70
2023/07/04 12:36:15;;;;;;;6.65;4.28;;;25.40;1.00;;;;;;5071115;28;20190;-71
2023/07/04 12:38:53;;;;;;;8.60;4.88;;;24.50;1.00;;;;;;5068190;28;20217;-71
2023/07/04 12:41:26;;;;;;;8.25;4.85;;;24.20;99.90;;;;;;5067771;28;20219;-71
2023/07/04 12:44:13;;;;;;;13.13;5.00;;;24.50;99.90;;;;;;5052954;28;20566;-71
2023/07/04 12:46:41;;;;;;;8.35;4.63;;;25.00;99.90;;;;;;5058669;28;20187;-70
2023/07/04 12:49:12;;;;;;;5.93;4.00;;;25.10;1.00;;;;;;5063566;28;20177;-71
2023/07/04 12:51:41;;;;;;;7.88;4.50;;;25.10;1.00;;;;;;5054071;28;20287;-70
2023/07/04 12:54:09;;;;;;;6.95;4.32;;;25.50;1.00;;;;;;5065535;28;20188;-72
2023/07/04 12:56:37;;;;;;;7.25;4.55;;;25.60;1.00;;;;;;5057069;28;20176;-71